Time;durP1;ratioP1;P1;durP2;ratioP2;P2;SDS_P1;SDS_P2;PMS_P1;PMS_P2;Temp;Humidity;BMP_temperature;BMP_pressure;BME280_temperature;BME280_humidity;BME280_pressure;Samples;Min_cycle;Max_cycle;Signal;HPM_P1;HPM_P2
2021/12/23 00:00:14;;;;;;;17.95;14.57;;;1.90;99.90;;;;;;2083024;28;20021;-69
2021/12/23 00:01:15;;;;;;;18.17;14.88;;;1.80;99.90;;;;;;2080202;28;20470;-69
2021/12/23 00:02:15;;;;;;;16.95;14.15;;;1.90;99.90;;;;;;2080561;28;20388;-69
2021/12/23 00:03:16;;;;;;;18.55;15.60;;;1.90;99.90;;;;;;2088693;28;20025;-69
2021/12/23 00:04:16;;;;;;;16.58;14.45;;;1.80;99.90;;;;;;2088752;28;20048;-69
2021/12/23 00:05:17;;;;;;;17.75;14.80;;;1.90;99.90;;;;;;2083485;28;20036;-69
2021/12/23 00:06:17;;;;;;;16.50;14.63;;;1.80;99.90;;;;;;2080060;28;20045;-69
2021/12/23 00:07:18;;;;;;;18.48;14.60;;;1.80;99.90;;;;;;2081718;28;20113;-69
2021/12/23 00:08:18;;;;;;;17.80;14.43;;;1.90;99.90;;;;;;2088223;28;20028;-69
2021/12/23 00:09:20;;;;;;;15.77;14.07;;;1.90;99.90;;;;;;2088526;28;20412;-69
2021/12/23 00:10:21;;;;;;;16.70;13.85;;;1.90;99.90;;;;;;2080907;28;20473;-69
2021/12/23 00:11:22;;;;;;;16.33;13.90;;;1.90;99.90;;;;;;2082819;28;20419;-69
2021/12/23 00:12:22;;;;;;;17.42;14.23;;;1.80;99.90;;;;;;2072372;28;20017;-69
2021/12/23 00:13:23;;;;;;;20.52;15.77;;;1.80;99.90;;;;;;2072099;28;20509;-69
2021/12/23 00:14:24;;;;;;;16.27;13.57;;;1.80;99.90;;;;;;2076796;28;20167;-69
2021/12/23 00:15:31;;;;;;;17.33;14.48;;;1.80;99.90;;;;;;2074982;28;20029;-69
2021/12/23 00:19:15;;;;;;;15.10;13.55;;;1.80;99.90;;;;;;2088992;28;20024;-69
2021/12/23 00:23:57;;;;;;;17.27;13.88;;;1.80;99.90;;;;;;2080288;28;20026;-69
2021/12/23 00:24:58;;;;;;;20.77;14.63;;;1.80;99.90;;;;;;2080404;28;20053;-69
2021/12/23 00:26:01;;;;;;;19.45;14.80;;;1.80;99.90;;;;;;2079574;28;20037;-69
2021/12/23 00:27:03;;;;;;;18.70;14.98;;;1.80;99.90;;;;;;2084067;28;20033;-69
2021/12/23 00:28:03;;;;;;;19.35;14.00;;;1.80;99.90;;;;;;2088083;28;20469;-70
2021/12/23 00:29:04;;;;;;;18.85;15.40;;;1.80;99.90;;;;;;2088533;28;20382;-69
2021/12/23 00:30:05;;;;;;;20.05;15.82;;;1.80;99.90;;;;;;2087502;28;20047;-69
2021/12/23 00:31:06;;;;;;;20.58;15.68;;;1.80;99.90;;;;;;2087724;28;20040;-69
2021/12/23 00:32:08;;;;;;;18.73;15.20;;;1.80;99.90;;;;;;2082832;28;20461;-69
2021/12/23 00:33:09;;;;;;;18.80;15.57;;;1.80;99.90;;;;;;2078893;28;20040;-69
2021/12/23 00:34:10;;;;;;;18.35;15.50;;;1.80;99.90;;;;;;2086455;28;20025;-69
2021/12/23 00:35:11;;;;;;;21.17;16.17;;;1.90;99.90;;;;;;2080302;28;20040;-69
2021/12/23 00:36:12;;;;;;;21.17;16.15;;;1.90;99.90;;;;;;2079985;28;20026;-69
2021/12/23 00:37:13;;;;;;;17.20;14.63;;;1.90;99.90;;;;;;2080393;28;20482;-69
2021/12/23 00:38:20;;;;;;;19.70;15.27;;;1.80;99.90;;;;;;2078875;28;20580;-69
2021/12/23 00:39:21;;;;;;;17.73;15.32;;;1.90;99.90;;;;;;2080064;28;20117;-69
2021/12/23 00:40:21;;;;;;;18.52;14.50;;;1.90;99.90;;;;;;2079952;28;20021;-69
2021/12/23 00:41:23;;;;;;;18.77;15.35;;;1.90;99.90;;;;;;2081420;28;20700;-69
2021/12/23 00:42:24;;;;;;;20.08;15.65;;;1.90;99.90;;;;;;2088325;28;20112;-69
2021/12/23 00:43:24;;;;;;;19.48;15.10;;;1.90;99.90;;;;;;2088348;28;20025;-69
2021/12/23 00:44:25;;;;;;;19.83;15.98;;;1.90;99.90;;;;;;2088735;28;20036;-69
2021/12/23 00:45:26;;;;;;;21.98;15.20;;;1.90;99.90;;;;;;2088322;28;20036;-69
2021/12/23 00:46:26;;;;;;;19.05;15.35;;;1.90;99.90;;;;;;2088104;28;20091;-69
2021/12/23 00:47:27;;;;;;;18.52;15.15;;;2.00;99.90;;;;;;2088476;28;20052;-69
2021/12/23 00:48:27;;;;;;;21.63;16.45;;;2.00;99.90;;;;;;2081813;28;20541;-69
2021/12/23 00:49:28;;;;;;;18.83;15.95;;;2.00;99.90;;;;;;2079924;28;20025;-69
2021/12/23 00:50:28;;;;;;;18.98;15.32;;;2.00;99.90;;;;;;2080159;28;20036;-69
2021/12/23 00:51:30;;;;;;;19.15;15.30;;;2.00;99.90;;;;;;2079700;28;20033;-69
2021/12/23 00:52:34;;;;;;;21.30;16.65;;;2.00;99.90;;;;;;2080561;28;20026;-69
2021/12/23 00:53:38;;;;;;;17.65;14.93;;;2.00;99.90;;;;;;2079747;28;20036;-69
2021/12/23 00:54:39;;;;;;;19.05;15.50;;;2.00;99.90;;;;;;2080418;28;20086;-69
2021/12/23 00:55:39;;;;;;;18.13;14.93;;;2.10;99.90;;;;;;2079994;28;20048;-69
2021/12/23 00:56:40;;;;;;;18.25;15.32;;;2.10;99.90;;;;;;2080117;28;20519;-69
2021/12/23 00:57:41;;;;;;;19.55;15.57;;;2.10;99.90;;;;;;2079948;28;20374;-69
2021/12/23 00:58:42;;;;;;;18.90;16.05;;;2.10;99.90;;;;;;2080023;28;20092;-69
2021/12/23 00:59:42;;;;;;;17.48;14.85;;;2.10;99.90;;;;;;2085383;28;20021;-69
2021/12/23 01:00:43;;;;;;;19.77;15.23;;;2.10;99.90;;;;;;2083486;28;20029;-69
2021/12/23 01:01:45;;;;;;;20.77;15.93;;;2.10;99.90;;;;;;2087884;28;20028;-69
2021/12/23 01:02:47;;;;;;;18.67;15.43;;;2.10;99.90;;;;;;2085904;28;20036;-69
2021/12/23 01:03:47;;;;;;;21.13;16.17;;;2.20;99.90;;;;;;2080092;28;20378;-69
2021/12/23 01:04:48;;;;;;;18.88;15.82;;;2.20;99.90;;;;;;2087258;28;20104;-69
2021/12/23 01:05:49;;;;;;;19.42;16.45;;;2.20;99.90;;;;;;2087968;28;20021;-69
2021/12/23 01:06:49;;;;;;;18.75;15.45;;;2.20;99.90;;;;;;2088438;28;20110;-69
2021/12/23 01:07:50;;;;;;;17.33;14.43;;;2.20;99.90;;;;;;2087451;28;20036;-70
2021/12/23 01:08:50;;;;;;;18.40;14.90;;;2.20;99.90;;;;;;2088336;28;20500;-70
2021/12/23 01:09:51;;;;;;;19.70;15.73;;;2.30;99.90;;;;;;2081078;28;20029;-69
2021/12/23 01:10:56;;;;;;;19.42;16.20;;;2.30;99.90;;;;;;2077463;28;20029;-69
2021/12/23 01:11:57;;;;;;;20.35;16.25;;;2.30;99.90;;;;;;2072704;28;20053;-69
2021/12/23 01:13:01;;;;;;;20.45;16.65;;;2.30;99.90;;;;;;2071768;28;20080;-69
2021/12/23 01:14:26;;;;;;;18.55;15.30;;;2.30;99.90;;;;;;2077805;28;20405;-69
2021/12/23 01:16:47;;;;;;;19.23;15.98;;;2.30;99.90;;;;;;2086393;28;20416;-70
2021/12/23 01:18:55;;;;;;;20.20;16.17;;;2.30;99.90;;;;;;2080091;28;20033;-69
2021/12/23 01:19:57;;;;;;;19.83;16.10;;;2.30;99.90;;;;;;2079687;28;20049;-69
2021/12/23 01:21:32;;;;;;;21.10;15.68;;;2.30;99.90;;;;;;2080206;28;20030;-69
2021/12/23 01:22:26;;;;;;;20.17;16.35;;;2.30;99.90;;;;;;2076464;28;20034;-69
2021/12/23 01:23:26;;;;;;;20.45;15.65;;;2.30;99.90;;;;;;2080261;28;20029;-69
2021/12/23 01:24:31;;;;;;;21.70;15.70;;;2.30;99.90;;;;;;2079214;28;20121;-70
2021/12/23 01:25:33;;;;;;;22.92;16.17;;;2.30;99.90;;;;;;2079809;28;20025;-69
2021/12/23 01:26:34;;;;;;;20.15;16.20;;;2.30;99.90;;;;;;2079666;28;20026;-70
2021/12/23 01:27:34;;;;;;;22.90;16.20;;;2.30;99.90;;;;;;2082773;28;20029;-69
2021/12/23 01:28:35;;;;;;;19.73;16.70;;;2.30;99.90;;;;;;2081849;28;20105;-69
2021/12/23 01:29:36;;;;;;;19.70;16.98;;;2.30;99.90;;;;;;2088228;28;20078;-69
2021/12/23 01:30:40;;;;;;;20.35;16.50;;;2.30;99.90;;;;;;2088104;28;20485;-69
2021/12/23 01:31:43;;;;;;;19.52;16.00;;;2.40;99.90;;;;;;2082213;28;20112;-69
2021/12/23 01:32:45;;;;;;;21.83;16.90;;;2.40;99.90;;;;;;2079599;28;20500;-69
2021/12/23 01:33:46;;;;;;;20.55;16.63;;;2.40;99.90;;;;;;2082269;28;20029;-69
2021/12/23 01:34:46;;;;;;;20.38;16.92;;;2.40;99.90;;;;;;2087680;28;20120;-70
2021/12/23 01:35:50;;;;;;;21.40;16.75;;;2.40;99.90;;;;;;2088459;28;20458;-69
2021/12/23 01:36:50;;;;;;;21.83;17.00;;;2.40;99.90;;;;;;2083102;28;20140;-70
2021/12/23 01:37:51;;;;;;;20.30;16.52;;;2.40;99.90;;;;;;2079213;28;20021;-69
2021/12/23 01:38:52;;;;;;;20.42;16.63;;;2.40;99.90;;;;;;2079622;28;20029;-69
2021/12/23 01:39:53;;;;;;;20.60;16.63;;;2.40;99.90;;;;;;2082520;28;20022;-69
2021/12/23 01:40:53;;;;;;;20.73;16.95;;;2.40;99.90;;;;;;2087928;28;20025;-69
2021/12/23 01:41:54;;;;;;;18.63;16.65;;;2.40;99.90;;;;;;2087494;28;20393;-69
2021/12/23 01:42:55;;;;;;;20.25;17.25;;;2.40;99.90;;;;;;2087155;28;20025;-69
2021/12/23 01:43:56;;;;;;;20.17;16.92;;;2.40;99.90;;;;;;2084448;28;20025;-69
2021/12/23 01:44:57;;;;;;;22.73;17.55;;;2.40;99.90;;;;;;2082123;28;20108;-69
2021/12/23 01:45:57;;;;;;;22.70;17.98;;;2.50;99.90;;;;;;2079933;28;20025;-69
2021/12/23 01:46:58;;;;;;;20.85;17.27;;;2.40;99.90;;;;;;2079367;28;20443;-69
2021/12/23 01:48:00;;;;;;;25.13;19.30;;;2.50;99.90;;;;;;2079140;28;20034;-69
2021/12/23 01:49:00;;;;;;;21.48;16.52;;;2.50;99.90;;;;;;2079670;28;20033;-70
2021/12/23 01:50:01;;;;;;;21.20;16.52;;;2.50;99.90;;;;;;2079780;28;20033;-69
2021/12/23 01:51:02;;;;;;;20.77;17.38;;;2.50;99.90;;;;;;2079755;28;20108;-69
2021/12/23 01:52:03;;;;;;;20.38;16.95;;;2.50;99.90;;;;;;2079775;28;20071;-70
2021/12/23 01:53:04;;;;;;;22.42;17.50;;;2.50;99.90;;;;;;2079771;28;20079;-69
2021/12/23 01:54:05;;;;;;;24.70;17.67;;;2.50;99.90;;;;;;2079905;28;20432;-69
2021/12/23 01:55:07;;;;;;;21.05;17.63;;;2.50;99.90;;;;;;2079516;28;20037;-69
2021/12/23 01:56:08;;;;;;;20.80;16.65;;;2.50;99.90;;;;;;2082337;28;20036;-69
2021/12/23 01:57:09;;;;;;;20.65;16.80;;;2.60;99.90;;;;;;2087825;28;20032;-69
2021/12/23 01:58:10;;;;;;;20.85;17.30;;;2.60;99.90;;;;;;2087249;28;20032;-69
2021/12/23 01:59:11;;;;;;;23.70;18.13;;;2.60;99.90;;;;;;2085512;28;20108;-69
2021/12/23 02:00:14;;;;;;;22.08;17.90;;;2.60;99.90;;;;;;2082177;28;20026;-69
2021/12/23 02:01:15;;;;;;;20.45;17.48;;;2.60;99.90;;;;;;2078716;28;20453;-69
2021/12/23 02:02:16;;;;;;;24.45;17.35;;;2.50;99.90;;;;;;2078975;28;20115;-70
2021/12/23 02:03:18;;;;;;;19.60;16.52;;;2.60;99.90;;;;;;2070809;28;20479;-69
2021/12/23 02:04:18;;;;;;;19.73;17.58;;;2.60;99.90;;;;;;2074219;28;20064;-69
2021/12/23 02:05:20;;;;;;;20.38;17.05;;;2.60;99.90;;;;;;2079658;28;20045;-69
2021/12/23 02:06:21;;;;;;;20.38;16.50;;;2.60;99.90;;;;;;2081138;28;20025;-69
2021/12/23 02:07:21;;;;;;;20.98;17.25;;;2.60;99.90;;;;;;2079343;28;20029;-70
2021/12/23 02:08:22;;;;;;;19.83;16.65;;;2.60;99.90;;;;;;2078942;28;20030;-69
2021/12/23 02:09:22;;;;;;;22.27;17.42;;;2.60;99.90;;;;;;2084758;28;20053;-69
2021/12/23 02:10:23;;;;;;;21.02;17.35;;;2.50;99.90;;;;;;2079215;28;20060;-69
2021/12/23 02:11:24;;;;;;;22.33;16.60;;;2.60;99.90;;;;;;2082546;28;20056;-70
2021/12/23 02:12:25;;;;;;;20.50;17.40;;;2.60;99.90;;;;;;2071857;28;20040;-70
2021/12/23 02:13:27;;;;;;;21.95;17.90;;;2.60;99.90;;;;;;2072189;28;20113;-69
2021/12/23 02:14:28;;;;;;;21.95;17.92;;;2.60;99.90;;;;;;2077603;28;20024;-69
2021/12/23 02:15:29;;;;;;;22.98;17.23;;;2.60;99.90;;;;;;2080022;28;20029;-69
2021/12/23 02:16:29;;;;;;;22.30;17.83;;;2.60;99.90;;;;;;2089738;28;20529;-70
2021/12/23 02:17:34;;;;;;;21.80;17.90;;;2.50;99.90;;;;;;2085363;28;20469;-69
2021/12/23 02:18:36;;;;;;;22.95;17.30;;;2.50;99.90;;;;;;2072288;28;20084;-69
2021/12/23 02:19:36;;;;;;;21.05;17.13;;;2.50;99.90;;;;;;2073559;28;20022;-69
2021/12/23 02:20:37;;;;;;;22.30;17.48;;;2.50;99.90;;;;;;2080469;28;20056;-69
2021/12/23 02:21:41;;;;;;;21.60;17.40;;;2.50;99.90;;;;;;2080973;28;20053;-69
2021/12/23 02:22:43;;;;;;;22.35;16.92;;;2.50;99.90;;;;;;2088485;28;20017;-69
2021/12/23 02:23:43;;;;;;;23.05;17.80;;;2.50;99.90;;;;;;2089518;28;20021;-69
2021/12/23 02:24:44;;;;;;;22.10;18.30;;;2.50;99.90;;;;;;2089958;28;20029;-69
2021/12/23 02:25:44;;;;;;;20.00;17.45;;;2.50;99.90;;;;;;2089589;28;20060;-69
2021/12/23 02:26:45;;;;;;;23.40;17.25;;;2.50;99.90;;;;;;2081004;28;20087;-70
2021/12/23 02:27:48;;;;;;;22.35;17.75;;;2.50;99.90;;;;;;2089454;28;20036;-69
2021/12/23 02:28:48;;;;;;;21.73;17.75;;;2.50;99.90;;;;;;2082725;28;20124;-69
2021/12/23 02:29:49;;;;;;;21.65;18.00;;;2.50;99.90;;;;;;2081410;28;20084;-69
2021/12/23 02:30:51;;;;;;;22.30;17.08;;;2.50;99.90;;;;;;2081694;28;20043;-69
2021/12/23 02:31:52;;;;;;;21.58;16.70;;;2.50;99.90;;;;;;2083806;28;20018;-69
2021/12/23 02:32:54;;;;;;;21.40;17.38;;;2.50;99.90;;;;;;2088235;28;20032;-70
2021/12/23 02:33:55;;;;;;;21.90;18.15;;;2.50;99.90;;;;;;2086575;28;20443;-69
2021/12/23 02:34:55;;;;;;;25.02;17.95;;;2.50;99.90;;;;;;2084897;28;20026;-70
2021/12/23 02:35:58;;;;;;;20.33;17.33;;;2.50;99.90;;;;;;2081233;28;20028;-69
2021/12/23 02:37:00;;;;;;;19.90;16.33;;;2.50;99.90;;;;;;2080912;28;20026;-69
2021/12/23 02:38:00;;;;;;;20.42;17.10;;;2.50;99.90;;;;;;2080904;28;20457;-69
2021/12/23 02:39:01;;;;;;;20.80;17.02;;;2.50;99.90;;;;;;2080811;28;20485;-69
2021/12/23 02:40:04;;;;;;;20.38;17.63;;;2.50;99.90;;;;;;2084850;28;20104;-69
2021/12/23 02:41:04;;;;;;;22.27;17.77;;;2.60;99.90;;;;;;2089112;28;20018;-69
2021/12/23 02:42:05;;;;;;;20.83;17.58;;;2.50;99.90;;;;;;2088309;28;20029;-70
2021/12/23 02:43:15;;;;;;;19.17;16.52;;;2.60;99.90;;;;;;2082354;28;20022;-69
2021/12/23 02:44:17;;;;;;;20.58;16.42;;;2.60;99.90;;;;;;2081852;28;20033;-69
2021/12/23 02:45:18;;;;;;;19.67;16.80;;;2.60;99.90;;;;;;2085219;28;20037;-69
2021/12/23 02:46:19;;;;;;;29.02;18.92;;;2.60;99.90;;;;;;2083167;28;20048;-69
2021/12/23 02:47:19;;;;;;;21.17;17.08;;;2.60;99.90;;;;;;2085700;28;20095;-69
2021/12/23 02:48:35;;;;;;;22.20;17.77;;;2.60;99.90;;;;;;2080277;28;20065;-69
2021/12/23 02:49:35;;;;;;;21.75;17.80;;;2.50;99.90;;;;;;2081273;28;20545;-69
2021/12/23 02:50:36;;;;;;;20.33;16.23;;;2.50;99.90;;;;;;2081203;28;20025;-70
2021/12/23 02:51:37;;;;;;;22.85;18.00;;;2.50;99.90;;;;;;2080016;28;20167;-69
2021/12/23 02:52:37;;;;;;;20.85;17.15;;;2.60;99.90;;;;;;2074624;28;20030;-69
2021/12/23 02:53:40;;;;;;;20.85;16.95;;;2.60;99.90;;;;;;2089077;28;20121;-69
2021/12/23 02:54:41;;;;;;;20.17;16.98;;;2.50;99.90;;;;;;2089036;28;20036;-69
2021/12/23 02:55:42;;;;;;;23.35;17.95;;;2.60;99.90;;;;;;2084099;28;20022;-69
2021/12/23 02:56:43;;;;;;;20.67;17.45;;;2.60;99.90;;;;;;2080941;28;20037;-70
2021/12/23 02:57:43;;;;;;;20.65;16.95;;;2.60;99.90;;;;;;2080635;28;20469;-69
2021/12/23 02:58:45;;;;;;;22.80;18.10;;;2.60;99.90;;;;;;2080761;28;20029;-69
2021/12/23 02:59:46;;;;;;;23.70;18.88;;;2.60;99.90;;;;;;2085630;28;20071;-69
2021/12/23 03:00:48;;;;;;;20.35;17.58;;;2.60;99.90;;;;;;2089080;28;20112;-69
2021/12/23 03:01:49;;;;;;;23.40;18.15;;;2.50;99.90;;;;;;2081785;28;20092;-69
2021/12/23 03:02:49;;;;;;;24.23;18.50;;;2.50;99.90;;;;;;2082027;28;20033;-69
2021/12/23 03:03:51;;;;;;;22.80;17.92;;;2.50;99.90;;;;;;2082000;28;20053;-69
2021/12/23 03:04:51;;;;;;;22.38;17.83;;;2.50;99.90;;;;;;2077385;28;20022;-69
2021/12/23 03:05:57;;;;;;;20.67;17.60;;;2.50;99.90;;;;;;2083197;28;20535;-69
2021/12/23 03:06:58;;;;;;;21.98;16.92;;;2.50;99.90;;;;;;2075967;28;20028;-70
2021/12/23 03:08:00;;;;;;;20.45;16.45;;;2.50;99.90;;;;;;2080510;28;20022;-69
2021/12/23 03:09:03;;;;;;;19.33;15.98;;;2.50;99.90;;;;;;2082125;28;20071;-69
2021/12/23 03:10:07;;;;;;;21.88;18.67;;;2.50;99.90;;;;;;2081834;28;20029;-69
2021/12/23 03:11:10;;;;;;;19.42;16.88;;;2.60;99.90;;;;;;2080181;28;20084;-69
2021/12/23 03:12:10;;;;;;;19.63;17.05;;;2.50;99.90;;;;;;2077021;28;20490;-69
2021/12/23 03:13:11;;;;;;;22.55;18.52;;;2.60;99.90;;;;;;2082303;28;20389;-69
2021/12/23 03:14:13;;;;;;;21.58;17.73;;;2.50;99.90;;;;;;2085996;28;20025;-69
2021/12/23 03:15:14;;;;;;;21.42;17.67;;;2.50;99.90;;;;;;2081914;28;20377;-69
2021/12/23 03:16:19;;;;;;;21.27;18.20;;;2.50;99.90;;;;;;2081742;28;20029;-69
2021/12/23 03:17:20;;;;;;;22.50;18.23;;;2.50;99.90;;;;;;2082221;28;20465;-69
2021/12/23 03:18:20;;;;;;;22.63;18.70;;;2.50;99.90;;;;;;2081427;28;20765;-69
2021/12/23 03:19:21;;;;;;;22.70;18.38;;;2.50;99.90;;;;;;2082152;28;20076;-69
2021/12/23 03:20:21;;;;;;;22.73;18.67;;;2.50;99.90;;;;;;2081878;28;20052;-69
2021/12/23 03:21:22;;;;;;;24.63;18.40;;;2.50;99.90;;;;;;2082190;28;20036;-69
2021/12/23 03:22:23;;;;;;;21.23;18.33;;;2.50;99.90;;;;;;2081839;28;20083;-69
2021/12/23 03:23:24;;;;;;;20.98;17.00;;;2.50;99.90;;;;;;2081813;28;20075;-69
2021/12/23 03:24:25;;;;;;;20.63;16.85;;;2.50;99.90;;;;;;2081775;28;20103;-69
2021/12/23 03:25:25;;;;;;;22.58;17.42;;;2.50;99.90;;;;;;2085777;28;20071;-69
2021/12/23 03:26:26;;;;;;;24.13;18.92;;;2.60;99.90;;;;;;2084039;28;20100;-69
2021/12/23 03:27:26;;;;;;;22.48;18.88;;;2.50;99.90;;;;;;2081019;28;20057;-69
2021/12/23 03:28:27;;;;;;;20.05;17.50;;;2.50;99.90;;;;;;2081420;28;20025;-70
2021/12/23 03:29:28;;;;;;;23.85;19.65;;;2.50;99.90;;;;;;2081982;28;20025;-70
2021/12/23 03:30:29;;;;;;;23.05;18.92;;;2.50;99.90;;;;;;2087282;28;20049;-69
2021/12/23 03:31:29;;;;;;;27.63;20.23;;;2.60;99.90;;;;;;2090071;28;20029;-69
2021/12/23 03:32:30;;;;;;;25.40;19.33;;;2.50;99.90;;;;;;2090344;28;20045;-69
2021/12/23 03:33:31;;;;;;;25.23;19.63;;;2.60;99.90;;;;;;2082047;28;20033;-69
2021/12/23 03:34:31;;;;;;;25.13;20.00;;;2.60;99.90;;;;;;2081882;28;20032;-70
2021/12/23 03:35:33;;;;;;;24.60;19.83;;;2.60;99.90;;;;;;2081926;28;20026;-69
2021/12/23 03:36:33;;;;;;;22.95;18.70;;;2.60;99.90;;;;;;2081912;28;20493;-69
2021/12/23 03:37:34;;;;;;;23.27;19.38;;;2.60;99.90;;;;;;2081051;28;20362;-69
2021/12/23 03:38:35;;;;;;;23.90;18.85;;;2.60;99.90;;;;;;2086201;28;20105;-70
2021/12/23 03:39:35;;;;;;;22.17;19.02;;;2.60;99.90;;;;;;2089958;28;20032;-69
2021/12/23 03:40:36;;;;;;;23.23;19.33;;;2.60;99.90;;;;;;2090342;28;20021;-69
2021/12/23 03:41:37;;;;;;;22.95;18.80;;;2.60;99.90;;;;;;2089880;28;20017;-69
2021/12/23 03:42:39;;;;;;;23.60;19.33;;;2.60;99.90;;;;;;2090148;28;20022;-69
2021/12/23 03:43:40;;;;;;;25.30;19.25;;;2.60;99.90;;;;;;2081962;28;20104;-69
2021/12/23 03:44:40;;;;;;;23.95;18.85;;;2.60;99.90;;;;;;2076057;28;20030;-69
2021/12/23 03:45:45;;;;;;;24.27;18.48;;;2.60;99.90;;;;;;2077352;28;20014;-69
2021/12/23 03:46:45;;;;;;;19.92;17.80;;;2.60;99.90;;;;;;2078767;28;20033;-69
2021/12/23 03:47:48;;;;;;;21.90;17.60;;;2.60;99.90;;;;;;2077488;28;20029;-69
2021/12/23 03:48:49;;;;;;;22.65;18.60;;;2.60;99.90;;;;;;2078879;28;20022;-69
2021/12/23 03:49:50;;;;;;;22.80;19.05;;;2.60;99.90;;;;;;2079619;28;20025;-70
2021/12/23 03:50:51;;;;;;;24.00;20.00;;;2.50;99.90;;;;;;2081369;28;20040;-69
2021/12/23 03:51:51;;;;;;;25.63;18.23;;;2.50;99.90;;;;;;2080365;28;20068;-69
2021/12/23 03:52:53;;;;;;;22.08;18.63;;;2.60;99.90;;;;;;2079373;28;20029;-69
2021/12/23 03:53:53;;;;;;;22.20;19.10;;;2.60;99.90;;;;;;2079809;28;20408;-69
2021/12/23 03:54:54;;;;;;;20.58;17.60;;;2.50;99.90;;;;;;2081925;28;20064;-69
2021/12/23 03:55:55;;;;;;;21.67;17.65;;;2.50;99.90;;;;;;2082663;28;20092;-69
2021/12/23 03:56:55;;;;;;;21.70;17.33;;;2.60;99.90;;;;;;2083036;28;20021;-69
2021/12/23 03:57:56;;;;;;;20.65;17.70;;;2.60;99.90;;;;;;2086323;28;20025;-69
2021/12/23 03:58:57;;;;;;;23.35;18.98;;;2.60;99.90;;;;;;2087990;28;20021;-69
2021/12/23 03:59:58;;;;;;;23.42;19.05;;;2.60;99.90;;;;;;2089468;28;20429;-69
2021/12/23 04:00:59;;;;;;;22.55;18.55;;;2.60;99.90;;;;;;2090004;28;20032;-69
2021/12/23 04:02:00;;;;;;;25.40;18.83;;;2.60;99.90;;;;;;2089157;28;20100;-69
2021/12/23 04:03:01;;;;;;;24.27;19.10;;;2.50;99.90;;;;;;2089015;28;20361;-69
2021/12/23 04:04:01;;;;;;;25.13;19.83;;;2.50;99.90;;;;;;2085017;28;20134;-70
2021/12/23 04:05:04;;;;;;;23.98;18.33;;;2.50;99.90;;;;;;2080182;28;20056;-69
2021/12/23 04:06:04;;;;;;;21.73;17.42;;;2.50;99.90;;;;;;2085786;28;20032;-69
2021/12/23 04:07:05;;;;;;;18.77;15.60;;;2.50;99.90;;;;;;2089224;28;20059;-69
2021/12/23 04:08:06;;;;;;;22.13;17.38;;;2.50;99.90;;;;;;2088392;28;20041;-69
2021/12/23 04:09:06;;;;;;;19.38;16.35;;;2.50;99.90;;;;;;2087912;28;20539;-69
2021/12/23 04:10:10;;;;;;;20.58;16.98;;;2.50;99.90;;;;;;2084408;28;20431;-69
2021/12/23 04:11:11;;;;;;;19.63;16.80;;;2.50;99.90;;;;;;2081153;28;20037;-69
2021/12/23 04:12:11;;;;;;;19.52;16.63;;;2.50;99.90;;;;;;2080896;28;20067;-69
2021/12/23 04:13:12;;;;;;;21.70;16.60;;;2.50;99.90;;;;;;2079005;28;20033;-69
2021/12/23 04:14:12;;;;;;;20.25;16.67;;;2.50;99.90;;;;;;2083476;28;20548;-69
2021/12/23 04:15:13;;;;;;;20.50;17.65;;;2.50;99.90;;;;;;2072769;28;20057;-69
2021/12/23 04:16:14;;;;;;;19.55;16.92;;;2.50;99.90;;;;;;2080216;28;20033;-69
2021/12/23 04:17:14;;;;;;;19.00;16.58;;;2.50;99.90;;;;;;2080290;28;20087;-69
2021/12/23 04:18:16;;;;;;;21.55;16.55;;;2.50;99.90;;;;;;2079129;28;20037;-69
2021/12/23 04:19:17;;;;;;;23.08;18.13;;;2.50;99.90;;;;;;2080383;28;20029;-69
2021/12/23 04:20:21;;;;;;;22.58;17.90;;;2.50;99.90;;;;;;2080634;28;20022;-69
2021/12/23 04:21:22;;;;;;;21.48;17.38;;;2.40;99.90;;;;;;2080077;28;20052;-69
2021/12/23 04:22:22;;;;;;;21.90;17.83;;;2.50;99.90;;;;;;2086287;28;20021;-69
2021/12/23 04:23:28;;;;;;;23.40;18.33;;;2.40;99.90;;;;;;2088430;28;20052;-69
2021/12/23 04:24:29;;;;;;;20.33;16.77;;;2.40;99.90;;;;;;2088607;28;20029;-69
2021/12/23 04:25:30;;;;;;;21.58;18.13;;;2.40;99.90;;;;;;2080629;28;20064;-69
2021/12/23 04:26:31;;;;;;;24.83;18.30;;;2.40;99.90;;;;;;2079980;28;20059;-69
2021/12/23 04:27:31;;;;;;;22.27;17.45;;;2.40;99.90;;;;;;2079537;28;20366;-69
2021/12/23 04:28:34;;;;;;;26.05;19.23;;;2.40;99.90;;;;;;2079210;28;20029;-69
2021/12/23 04:29:35;;;;;;;25.17;19.25;;;2.30;99.90;;;;;;2080212;28;20037;-69
2021/12/23 04:30:35;;;;;;;22.85;18.08;;;2.30;99.90;;;;;;2086808;28;20036;-69
2021/12/23 04:31:37;;;;;;;24.83;18.05;;;2.30;99.90;;;;;;2088235;28;20039;-69
2021/12/23 04:32:38;;;;;;;23.25;18.35;;;2.30;99.90;;;;;;2084807;28;20381;-69
2021/12/23 04:33:39;;;;;;;23.65;18.92;;;2.30;99.90;;;;;;2079898;28;20022;-69
2021/12/23 04:34:39;;;;;;;25.75;19.85;;;2.30;99.90;;;;;;2080058;28;20034;-69
2021/12/23 04:35:40;;;;;;;24.50;18.25;;;2.20;99.90;;;;;;2080048;28;20029;-69
2021/12/23 04:36:41;;;;;;;25.60;18.30;;;2.20;99.90;;;;;;2079784;28;20021;-69
2021/12/23 04:37:42;;;;;;;20.98;17.70;;;2.20;99.90;;;;;;2079844;28;20033;-69
2021/12/23 04:38:43;;;;;;;23.60;19.38;;;2.10;99.90;;;;;;2079770;28;20483;-69
2021/12/23 04:39:44;;;;;;;23.38;18.90;;;2.10;99.90;;;;;;2079971;28;20043;-69
2021/12/23 04:40:45;;;;;;;22.20;17.60;;;2.10;99.90;;;;;;2080336;28;20036;-69
2021/12/23 04:41:45;;;;;;;23.80;18.40;;;2.10;99.90;;;;;;2084962;28;20025;-69
2021/12/23 04:42:46;;;;;;;25.85;18.38;;;2.10;99.90;;;;;;2088487;28;20171;-69
2021/12/23 04:43:47;;;;;;;25.77;20.17;;;2.10;99.90;;;;;;2088138;28;20036;-69
2021/12/23 04:44:48;;;;;;;24.60;19.08;;;2.10;99.90;;;;;;2088307;28;20376;-69
2021/12/23 04:45:49;;;;;;;23.25;19.48;;;2.10;99.90;;;;;;2088218;28;20033;-69
2021/12/23 04:46:49;;;;;;;26.13;18.50;;;2.10;99.90;;;;;;2081519;28;20037;-69
2021/12/23 04:47:50;;;;;;;21.58;18.38;;;2.00;99.90;;;;;;2079778;28;20441;-69
2021/12/23 04:48:52;;;;;;;25.73;18.63;;;2.10;99.90;;;;;;2079678;28;20033;-69
2021/12/23 04:49:52;;;;;;;22.92;19.55;;;2.00;99.90;;;;;;2080175;28;20035;-69
2021/12/23 04:50:53;;;;;;;24.20;18.92;;;2.00;99.90;;;;;;2080195;28;20033;-69
2021/12/23 04:51:53;;;;;;;22.67;17.92;;;2.00;99.90;;;;;;2080092;28;20535;-69
2021/12/23 04:52:54;;;;;;;23.23;19.50;;;2.00;99.90;;;;;;2080173;28;20064;-69
2021/12/23 04:53:55;;;;;;;25.05;20.35;;;2.00;99.90;;;;;;2080281;28;20027;-69
2021/12/23 04:54:55;;;;;;;26.45;21.98;;;2.00;99.90;;;;;;2079456;28;20080;-69
2021/12/23 04:55:56;;;;;;;26.95;20.15;;;2.00;99.90;;;;;;2080024;28;20080;-69
2021/12/23 04:56:56;;;;;;;22.92;19.65;;;1.90;99.90;;;;;;2088200;28;20029;-69
2021/12/23 04:57:57;;;;;;;27.80;21.75;;;1.90;99.90;;;;;;2088274;28;20101;-69
2021/12/23 04:58:58;;;;;;;29.73;21.80;;;1.90;99.90;;;;;;2085883;28;20052;-69
2021/12/23 04:59:58;;;;;;;28.20;21.45;;;1.90;99.90;;;;;;2085785;28;20025;-69
2021/12/23 05:00:59;;;;;;;26.20;21.48;;;1.90;99.90;;;;;;2079293;28;20053;-69
2021/12/23 05:02:00;;;;;;;28.00;21.90;;;1.90;99.90;;;;;;2079620;28;20481;-69
2021/12/23 05:03:01;;;;;;;28.17;22.13;;;1.80;99.90;;;;;;2083678;28;20017;-69
2021/12/23 05:04:01;;;;;;;28.08;22.13;;;1.90;99.90;;;;;;2088182;28;20029;-69
2021/12/23 05:05:03;;;;;;;28.15;21.38;;;1.90;99.90;;;;;;2087963;28;20033;-69
2021/12/23 05:06:03;;;;;;;28.52;23.05;;;1.80;99.90;;;;;;2088353;28;20044;-69
2021/12/23 05:07:04;;;;;;;27.25;21.95;;;1.80;99.90;;;;;;2088075;28;20035;-69
2021/12/23 05:08:05;;;;;;;28.38;22.17;;;1.80;99.90;;;;;;2088174;28;20021;-69
2021/12/23 05:09:05;;;;;;;28.52;22.23;;;1.80;99.90;;;;;;2083847;28;20034;-69
2021/12/23 05:10:09;;;;;;;27.83;22.45;;;1.80;99.90;;;;;;2079703;28;20358;-69
2021/12/23 05:11:09;;;;;;;27.27;21.75;;;1.80;99.90;;;;;;2077188;28;20029;-69
2021/12/23 05:12:10;;;;;;;26.92;22.08;;;1.70;99.90;;;;;;2073150;28;20153;-69
2021/12/23 05:13:11;;;;;;;28.20;22.85;;;1.70;99.90;;;;;;2071751;28;20040;-69
2021/12/23 05:14:12;;;;;;;30.63;23.50;;;1.70;99.90;;;;;;2075156;28;20044;-69
2021/12/23 05:15:16;;;;;;;31.23;22.50;;;1.70;99.90;;;;;;2071001;28;20450;-69
2021/12/23 05:16:18;;;;;;;29.38;22.17;;;1.70;99.90;;;;;;2080125;28;20024;-69
2021/12/23 05:17:19;;;;;;;30.13;22.70;;;1.70;99.90;;;;;;2079581;28;20017;-69
2021/12/23 05:18:19;;;;;;;26.73;21.52;;;1.70;99.90;;;;;;2079096;28;20026;-69
2021/12/23 05:19:20;;;;;;;27.02;21.77;;;1.70;99.90;;;;;;2079673;28;20037;-69
2021/12/23 05:20:20;;;;;;;28.60;21.35;;;1.70;99.90;;;;;;2079955;28;20017;-69
2021/12/23 05:21:21;;;;;;;28.05;22.23;;;1.70;99.90;;;;;;2079788;28;20087;-69
2021/12/23 05:22:21;;;;;;;33.92;23.10;;;1.60;99.90;;;;;;2080031;28;20051;-69
2021/12/23 05:23:22;;;;;;;30.83;23.65;;;1.60;99.90;;;;;;2079609;28;20079;-69